In Rescue
 
Open Full Screen Window  High Contrast Mode
Wind Gusting 00 knots
05
November 14, 2019 1:54 PM EST
Present Weather: Light Snow
Weather Information
Wind Direction
  230 °
Wind Speed
  05 kt (6 mph)
Wind Gust
  00 kt (0 mph)
Altimeter
30.07 in
Visibility
7 SM
Temperature
-01° C
30° F
Dewpoint
-04° C
25° F
Humidity
80%
Sky Condition
Overcast @ 3,500 ft
Broken @ 3,000 ft
MVFR

METAR KPZQ 141854Z AUTO 23005KT 7SM -SN BKN030 OVC035 M01/M04 A3007 RMK AO2 T10151043

FAA Disclaimer: The data displayed is for advisory purposes only and is not to be used for flight planning or operations.